sensor_id;sensor_type;location;lat;lon;timestamp;pressure;altitude;pressure_sealevel;temperature;humidity
23223;BME280;11780;13.904;100.620;2023-04-27T00:00:48;101019.16;;;30.55;73.37
23223;BME280;11780;13.904;100.620;2023-04-27T00:03:18;101019.78;;;30.51;73.24
23223;BME280;11780;13.904;100.620;2023-04-27T00:05:49;101028.44;;;30.59;73.30
23223;BME280;11780;13.904;100.620;2023-04-27T00:08:20;101027.31;;;30.60;73.60
23223;BME280;11780;13.904;100.620;2023-04-27T00:10:50;101032.22;;;30.63;73.44
23223;BME280;11780;13.904;100.620;2023-04-27T00:13:21;101033.34;;;30.62;73.16
23223;BME280;11780;13.904;100.620;2023-04-27T00:15:51;101036.00;;;30.67;73.01
23223;BME280;11780;13.904;100.620;2023-04-27T00:18:21;101037.91;;;30.66;72.77
23223;BME280;11780;13.904;100.620;2023-04-27T00:20:52;101049.47;;;30.68;73.17
23223;BME280;11780;13.904;100.620;2023-04-27T00:23:22;101053.53;;;30.71;73.13
23223;BME280;11780;13.904;100.620;2023-04-27T00:25:52;101056.50;;;30.75;72.66
23223;BME280;11780;13.904;100.620;2023-04-27T00:28:22;101064.78;;;30.75;72.74
23223;BME280;11780;13.904;100.620;2023-04-27T00:30:53;101071.44;;;30.74;72.71
23223;BME280;11780;13.904;100.620;2023-04-27T00:33:26;101076.63;;;30.75;72.73
23223;BME280;11780;13.904;100.620;2023-04-27T00:36:00;101082.34;;;30.79;72.69
23223;BME280;11780;13.904;100.620;2023-04-27T00:38:31;101079.56;;;30.79;72.42
23223;BME280;11780;13.904;100.620;2023-04-27T00:41:02;101087.72;;;30.84;72.45
23223;BME280;11780;13.904;100.620;2023-04-27T00:43:32;101084.03;;;30.89;72.52
23223;BME280;11780;13.904;100.620;2023-04-27T00:46:03;101087.09;;;30.87;72.22
23223;BME280;11780;13.904;100.620;2023-04-27T00:48:34;101091.69;;;30.92;72.19
23223;BME280;11780;13.904;100.620;2023-04-27T00:51:04;101096.38;;;30.91;72.16
23223;BME280;11780;13.904;100.620;2023-04-27T00:53:35;101086.47;;;30.90;72.42
23223;BME280;11780;13.904;100.620;2023-04-27T00:56:08;101110.19;;;30.91;72.20
23223;BME280;11780;13.904;100.620;2023-04-27T00:58:38;101103.53;;;30.92;72.39
23223;BME280;11780;13.904;100.620;2023-04-27T01:01:09;101112.81;;;30.96;72.19
23223;BME280;11780;13.904;100.620;2023-04-27T01:03:39;101112.31;;;30.94;72.34
23223;BME280;11780;13.904;100.620;2023-04-27T01:06:10;101115.91;;;30.95;71.99
23223;BME280;11780;13.904;100.620;2023-04-27T01:08:42;101123.06;;;30.96;71.85
23223;BME280;11780;13.904;100.620;2023-04-27T01:11:13;101129.72;;;30.95;71.85
23223;BME280;11780;13.904;100.620;2023-04-27T01:13:43;101132.34;;;31.00;71.94
23223;BME280;11780;13.904;100.620;2023-04-27T01:16:17;101138.19;;;30.98;71.80
23223;BME280;11780;13.904;100.620;2023-04-27T01:18:47;101127.03;;;31.04;71.36
23223;BME280;11780;13.904;100.620;2023-04-27T01:21:17;101126.53;;;31.02;70.95
23223;BME280;11780;13.904;100.620;2023-04-27T01:23:47;101117.09;;;31.03;70.93
23223;BME280;11780;13.904;100.620;2023-04-27T01:26:18;101122.63;;;31.03;70.83
23223;BME280;11780;13.904;100.620;2023-04-27T01:28:48;101124.25;;;31.04;70.42
23223;BME280;11780;13.904;100.620;2023-04-27T01:31:19;101121.00;;;31.02;70.07
23223;BME280;11780;13.904;100.620;2023-04-27T01:33:49;101138.88;;;31.04;70.56
23223;BME280;11780;13.904;100.620;2023-04-27T01:36:20;101139.38;;;31.06;70.55
23223;BME280;11780;13.904;100.620;2023-04-27T01:38:50;101151.44;;;31.10;70.58
23223;BME280;11780;13.904;100.620;2023-04-27T01:41:21;101141.19;;;31.11;70.09
23223;BME280;11780;13.904;100.620;2023-04-27T01:43:51;101153.06;;;31.11;69.54
23223;BME280;11780;13.904;100.620;2023-04-27T01:46:21;101153.88;;;31.12;69.78
23223;BME280;11780;13.904;100.620;2023-04-27T01:48:52;101152.25;;;31.11;69.54
23223;BME280;11780;13.904;100.620;2023-04-27T01:51:22;101160.22;;;31.12;69.17
23223;BME280;11780;13.904;100.620;2023-04-27T01:53:53;101172.13;;;31.13;69.03
23223;BME280;11780;13.904;100.620;2023-04-27T01:56:23;101171.50;;;31.16;69.37
23223;BME280;11780;13.904;100.620;2023-04-27T01:58:54;101162.06;;;31.17;69.41
23223;BME280;11780;13.904;100.620;2023-04-27T02:01:25;101166.47;;;31.18;69.31
23223;BME280;11780;13.904;100.620;2023-04-27T02:03:56;101167.78;;;31.21;69.47
23223;BME280;11780;13.904;100.620;2023-04-27T02:06:28;101175.28;;;31.20;69.50
23223;BME280;11780;13.904;100.620;2023-04-27T02:08:58;101172.00;;;31.18;69.37
23223;BME280;11780;13.904;100.620;2023-04-27T02:11:29;101169.41;;;31.22;69.00
23223;BME280;11780;13.904;100.620;2023-04-27T02:13:59;101171.84;;;31.23;69.35
23223;BME280;11780;13.904;100.620;2023-04-27T02:16:29;101173.81;;;31.23;68.93
23223;BME280;11780;13.904;100.620;2023-04-27T02:19:00;101177.38;;;31.23;68.91
23223;BME280;11780;13.904;100.620;2023-04-27T02:21:32;101174.31;;;31.25;69.31
23223;BME280;11780;13.904;100.620;2023-04-27T02:24:02;101177.06;;;31.25;68.90
23223;BME280;11780;13.904;100.620;2023-04-27T02:26:33;101174.00;;;31.26;68.85
23223;BME280;11780;13.904;100.620;2023-04-27T02:29:03;101181.16;;;31.27;69.16
23223;BME280;11780;13.904;100.620;2023-04-27T02:31:35;101179.22;;;31.28;68.78
23223;BME280;11780;13.904;100.620;2023-04-27T02:34:05;101178.38;;;31.27;68.65
23223;BME280;11780;13.904;100.620;2023-04-27T02:36:36;101166.69;;;31.31;68.68
23223;BME280;11780;13.904;100.620;2023-04-27T02:39:08;101168.34;;;31.32;68.55
23223;BME280;11780;13.904;100.620;2023-04-27T02:41:38;101158.91;;;31.33;68.60
23223;BME280;11780;13.904;100.620;2023-04-27T02:44:09;101147.84;;;31.33;68.33
23223;BME280;11780;13.904;100.620;2023-04-27T02:46:39;101152.56;;;31.32;67.85
23223;BME280;11780;13.904;100.620;2023-04-27T02:49:09;101148.34;;;31.35;67.98
23223;BME280;11780;13.904;100.620;2023-04-27T02:51:40;101142.31;;;31.33;68.14
23223;BME280;11780;13.904;100.620;2023-04-27T02:54:10;101143.63;;;31.35;68.10
23223;BME280;11780;13.904;100.620;2023-04-27T02:56:40;101151.13;;;31.35;67.95
23223;BME280;11780;13.904;100.620;2023-04-27T02:59:10;101146.72;;;31.34;68.47
23223;BME280;11780;13.904;100.620;2023-04-27T03:01:41;101143.13;;;31.33;68.21
23223;BME280;11780;13.904;100.620;2023-04-27T03:04:12;101138.94;;;31.36;67.48
23223;BME280;11780;13.904;100.620;2023-04-27T03:06:47;101139.41;;;31.38;68.23
23223;BME280;11780;13.904;100.620;2023-04-27T03:09:18;101138.28;;;31.39;67.90
23223;BME280;11780;13.904;100.620;2023-04-27T03:11:48;101127.22;;;31.39;67.74
23223;BME280;11780;13.904;100.620;2023-04-27T03:14:19;101116.16;;;31.39;67.84
23223;BME280;11780;13.904;100.620;2023-04-27T03:16:51;101119.25;;;31.37;68.06
23223;BME280;11780;13.904;100.620;2023-04-27T03:19:23;101119.75;;;31.39;68.24
23223;BME280;11780;13.904;100.620;2023-04-27T03:21:53;101119.13;;;31.42;68.02
23223;BME280;11780;13.904;100.620;2023-04-27T03:24:23;101122.69;;;31.43;68.05
23223;BME280;11780;13.904;100.620;2023-04-27T03:26:54;101111.63;;;31.43;68.38
23223;BME280;11780;13.904;100.620;2023-04-27T03:29:24;101102.72;;;31.46;68.24
23223;BME280;11780;13.904;100.620;2023-04-27T03:31:55;101105.47;;;31.46;68.53
23223;BME280;11780;13.904;100.620;2023-04-27T03:34:26;101109.03;;;31.47;68.05
23223;BME280;11780;13.904;100.620;2023-04-27T03:36:56;101102.72;;;31.46;68.12
23223;BME280;11780;13.904;100.620;2023-04-27T03:39:27;101099.31;;;31.49;68.47
23223;BME280;11780;13.904;100.620;2023-04-27T03:41:57;101100.75;;;31.47;68.06
23223;BME280;11780;13.904;100.620;2023-04-27T03:44:28;101094.91;;;31.48;68.27
23223;BME280;11780;13.904;100.620;2023-04-27T03:47:02;101104.00;;;31.49;67.88
23223;BME280;11780;13.904;100.620;2023-04-27T03:49:38;101105.34;;;31.51;67.36
23223;BME280;11780;13.904;100.620;2023-04-27T03:52:09;101099.59;;;31.48;67.90
23223;BME280;11780;13.904;100.620;2023-04-27T03:54:40;101094.59;;;31.50;67.95
23223;BME280;11780;13.904;100.620;2023-04-27T03:57:11;101090.69;;;31.51;67.68
23223;BME280;11780;13.904;100.620;2023-04-27T03:59:41;101087.91;;;31.51;67.63
23223;BME280;11780;13.904;100.620;2023-04-27T04:02:12;101090.56;;;31.56;67.30
23223;BME280;11780;13.904;100.620;2023-04-27T04:04:42;101085.81;;;31.56;67.41
23223;BME280;11780;13.904;100.620;2023-04-27T04:07:13;101078.66;;;31.55;67.07
23223;BME280;11780;13.904;100.620;2023-04-27T04:09:43;101084.06;;;31.61;67.30
23223;BME280;11780;13.904;100.620;2023-04-27T04:12:14;101073.31;;;31.59;67.32
23223;BME280;11780;13.904;100.620;2023-04-27T04:14:44;101070.56;;;31.59;67.30
23223;BME280;11780;13.904;100.620;2023-04-27T04:17:17;101068.59;;;31.59;67.53
23223;BME280;11780;13.904;100.620;2023-04-27T04:19:47;101061.94;;;31.61;67.40
23223;BME280;11780;13.904;100.620;2023-04-27T04:22:18;101062.72;;;31.61;66.88
23223;BME280;11780;13.904;100.620;2023-04-27T04:24:48;101053.97;;;31.59;67.26
23223;BME280;11780;13.904;100.620;2023-04-27T04:27:18;101053.84;;;31.73;66.67
23223;BME280;11780;13.904;100.620;2023-04-27T04:29:49;101037.41;;;31.68;66.56
23223;BME280;11780;13.904;100.620;2023-04-27T04:32:19;101037.53;;;31.63;67.08
23223;BME280;11780;13.904;100.620;2023-04-27T04:34:51;101029.75;;;31.65;66.38
23223;BME280;11780;13.904;100.620;2023-04-27T04:37:22;101031.69;;;31.64;66.61
23223;BME280;11780;13.904;100.620;2023-04-27T04:39:53;101026.97;;;31.65;66.75
23223;BME280;11780;13.904;100.620;2023-04-27T04:42:24;101031.88;;;31.68;65.85
23223;BME280;11780;13.904;100.620;2023-04-27T04:44:55;101021.59;;;31.68;66.08
23223;BME280;11780;13.904;100.620;2023-04-27T04:47:28;101019.03;;;31.72;65.83
23223;BME280;11780;13.904;100.620;2023-04-27T04:50:00;101018.72;;;31.73;65.91
23223;BME280;11780;13.904;100.620;2023-04-27T04:52:31;101014.34;;;31.72;65.90
23223;BME280;11780;13.904;100.620;2023-04-27T04:55:01;101011.56;;;31.72;65.97
23223;BME280;11780;13.904;100.620;2023-04-27T04:57:32;101006.19;;;31.76;65.98
23223;BME280;11780;13.904;100.620;2023-04-27T05:00:03;101003.09;;;31.78;65.25
23223;BME280;11780;13.904;100.620;2023-04-27T05:02:35;100990.09;;;31.78;65.43
23223;BME280;11780;13.904;100.620;2023-04-27T05:05:06;100998.88;;;31.80;64.36
23223;BME280;11780;13.904;100.620;2023-04-27T05:07:37;100982.78;;;31.82;64.20
23223;BME280;11780;13.904;100.620;2023-04-27T05:10:07;100983.91;;;31.81;64.55
23223;BME280;11780;13.904;100.620;2023-04-27T05:12:37;100981.16;;;31.81;64.52
23223;BME280;11780;13.904;100.620;2023-04-27T05:15:08;100971.22;;;31.80;64.83
23223;BME280;11780;13.904;100.620;2023-04-27T05:17:38;100974.16;;;31.84;65.03
23223;BME280;11780;13.904;100.620;2023-04-27T05:20:09;100976.56;;;31.85;64.71
23223;BME280;11780;13.904;100.620;2023-04-27T05:22:39;100966.84;;;31.88;64.71
23223;BME280;11780;13.904;100.620;2023-04-27T05:25:10;100967.63;;;31.88;64.55
23223;BME280;11780;13.904;100.620;2023-04-27T05:27:40;100965.19;;;31.87;64.38
23223;BME280;11780;13.904;100.620;2023-04-27T05:30:12;100954.13;;;31.87;64.23
23223;BME280;11780;13.904;100.620;2023-04-27T05:32:42;100955.63;;;31.84;64.26
23223;BME280;11780;13.904;100.620;2023-04-27T05:35:12;100951.88;;;31.89;63.98
23223;BME280;11780;13.904;100.620;2023-04-27T05:37:43;100944.69;;;31.88;64.04
23223;BME280;11780;13.904;100.620;2023-04-27T05:40:14;100944.38;;;31.89;64.04
23223;BME280;11780;13.904;100.620;2023-04-27T05:42:47;100930.88;;;31.88;64.09
23223;BME280;11780;13.904;100.620;2023-04-27T05:45:18;100928.59;;;31.90;64.11
23223;BME280;11780;13.904;100.620;2023-04-27T05:47:49;100930.88;;;31.97;63.65
23223;BME280;11780;13.904;100.620;2023-04-27T05:50:19;100919.16;;;32.00;63.48
23223;BME280;11780;13.904;100.620;2023-04-27T05:52:50;100914.75;;;31.99;63.34
23223;BME280;11780;13.904;100.620;2023-04-27T05:55:20;100910.38;;;31.98;63.60
23223;BME280;11780;13.904;100.620;2023-04-27T05:57:51;100909.22;;;31.99;62.93
23223;BME280;11780;13.904;100.620;2023-04-27T06:00:35;100907.25;;;31.99;62.92
23223;BME280;11780;13.904;100.620;2023-04-27T06:03:05;100900.44;;;31.97;62.64
23223;BME280;11780;13.904;100.620;2023-04-27T06:05:36;100899.59;;;31.96;63.35
23223;BME280;11780;13.904;100.620;2023-04-27T06:08:06;100879.94;;;31.98;62.50
23223;BME280;11780;13.904;100.620;2023-04-27T06:10:40;100884.00;;;32.00;62.58
23223;BME280;11780;13.904;100.620;2023-04-27T06:13:10;100877.81;;;32.03;62.11
23223;BME280;11780;13.904;100.620;2023-04-27T06:15:40;100872.13;;;32.00;62.16
23223;BME280;11780;13.904;100.620;2023-04-27T06:18:11;100861.72;;;31.97;62.27
23223;BME280;11780;13.904;100.620;2023-04-27T06:20:42;100851.13;;;31.99;61.88
23223;BME280;11780;13.904;100.620;2023-04-27T06:23:12;100850.28;;;31.98;61.99
23223;BME280;11780;13.904;100.620;2023-04-27T06:25:43;100839.56;;;31.97;62.47
23223;BME280;11780;13.904;100.620;2023-04-27T06:28:13;100837.28;;;31.99;62.02
23223;BME280;11780;13.904;100.620;2023-04-27T06:30:43;100827.84;;;32.00;62.03
23223;BME280;11780;13.904;100.620;2023-04-27T06:33:14;100816.31;;;31.98;62.11
23223;BME280;11780;13.904;100.620;2023-04-27T06:35:44;100813.53;;;31.98;62.16
23223;BME280;11780;13.904;100.620;2023-04-27T06:38:15;100804.91;;;31.99;61.69
23223;BME280;11780;13.904;100.620;2023-04-27T06:40:49;100799.84;;;32.01;61.56
23223;BME280;11780;13.904;100.620;2023-04-27T06:43:22;100790.25;;;31.99;61.70
23223;BME280;11780;13.904;100.620;2023-04-27T06:45:53;100786.66;;;31.98;61.83
23223;BME280;11780;13.904;100.620;2023-04-27T06:48:24;100784.25;;;31.97;62.13
23223;BME280;11780;13.904;100.620;2023-04-27T06:50:54;100781.47;;;31.97;61.56
23223;BME280;11780;13.904;100.620;2023-04-27T06:53:25;100769.28;;;31.98;62.13
23223;BME280;11780;13.904;100.620;2023-04-27T06:55:55;100771.22;;;31.97;62.02
23223;BME280;11780;13.904;100.620;2023-04-27T06:58:26;100769.28;;;31.98;61.72
23223;BME280;11780;13.904;100.620;2023-04-27T07:00:56;100747.28;;;32.01;61.46
23223;BME280;11780;13.904;100.620;2023-04-27T07:03:27;100740.91;;;32.01;61.23
23223;BME280;11780;13.904;100.620;2023-04-27T07:05:58;100735.56;;;32.04;61.17
23223;BME280;11780;13.904;100.620;2023-04-27T07:08:28;100724.16;;;32.06;60.72
23223;BME280;11780;13.904;100.620;2023-04-27T07:10:59;100728.19;;;32.09;60.91
23223;BME280;11780;13.904;100.620;2023-04-27T07:13:30;100723.13;;;32.11;60.42
23223;BME280;11780;13.904;100.620;2023-04-27T07:16:00;100711.28;;;32.10;60.70
23223;BME280;11780;13.904;100.620;2023-04-27T07:18:31;100704.13;;;32.09;60.55
23223;BME280;11780;13.904;100.620;2023-04-27T07:21:01;100697.75;;;32.09;60.61
23223;BME280;11780;13.904;100.620;2023-04-27T07:23:32;100701.00;;;32.11;60.32
23223;BME280;11780;13.904;100.620;2023-04-27T07:26:02;100698.41;;;32.14;60.33
23223;BME280;11780;13.904;100.620;2023-04-27T07:28:33;100696.28;;;32.11;60.15
23223;BME280;11780;13.904;100.620;2023-04-27T07:31:05;100693.00;;;32.18;59.91
23223;BME280;11780;13.904;100.620;2023-04-27T07:33:36;100675.25;;;32.19;59.83
23223;BME280;11780;13.904;100.620;2023-04-27T07:36:06;100676.06;;;32.19;59.49
23223;BME280;11780;13.904;100.620;2023-04-27T07:38:37;100666.94;;;32.19;59.47
23223;BME280;11780;13.904;100.620;2023-04-27T07:41:07;100653.91;;;32.19;58.94
23223;BME280;11780;13.904;100.620;2023-04-27T07:43:38;100657.03;;;32.18;59.49
23223;BME280;11780;13.904;100.620;2023-04-27T07:46:09;100671.00;;;32.22;58.73
23223;BME280;11780;13.904;100.620;2023-04-27T07:48:40;100653.59;;;32.21;58.67
23223;BME280;11780;13.904;100.620;2023-04-27T07:51:11;100658.78;;;32.23;58.46
23223;BME280;11780;13.904;100.620;2023-04-27T07:53:44;100652.09;;;32.24;58.67
23223;BME280;11780;13.904;100.620;2023-04-27T07:56:15;100653.25;;;32.23;58.56
23223;BME280;11780;13.904;100.620;2023-04-27T07:58:46;100659.13;;;32.21;58.77
23223;BME280;11780;13.904;100.620;2023-04-27T08:01:16;100664.47;;;32.26;58.65
23223;BME280;11780;13.904;100.620;2023-04-27T08:03:48;100651.75;;;32.25;58.51
23223;BME280;11780;13.904;100.620;2023-04-27T08:06:18;100651.94;;;32.29;58.09
23223;BME280;11780;13.904;100.620;2023-04-27T08:08:50;100657.63;;;32.24;58.68
23223;BME280;11780;13.904;100.620;2023-04-27T08:11:21;100657.47;;;32.29;58.26
23223;BME280;11780;13.904;100.620;2023-04-27T08:13:52;100657.47;;;32.29;57.99
23223;BME280;11780;13.904;100.620;2023-04-27T08:16:22;100651.25;;;32.32;57.98
23223;BME280;11780;13.904;100.620;2023-04-27T08:18:52;100656.00;;;32.31;58.51
23223;BME280;11780;13.904;100.620;2023-04-27T08:21:25;100657.13;;;32.30;58.65
23223;BME280;11780;13.904;100.620;2023-04-27T08:23:57;100655.19;;;32.31;58.98
23223;BME280;11780;13.904;100.620;2023-04-27T08:26:27;100656.34;;;32.30;59.04
23223;BME280;11780;13.904;100.620;2023-04-27T08:28:58;100652.44;;;32.31;58.91
23223;BME280;11780;13.904;100.620;2023-04-27T08:31:46;100656.78;;;32.32;59.38
23223;BME280;11780;13.904;100.620;2023-04-27T08:34:16;100656.13;;;32.35;59.15
23223;BME280;11780;13.904;100.620;2023-04-27T08:36:47;100661.00;;;32.38;59.69
23223;BME280;11780;13.904;100.620;2023-04-27T08:39:17;100657.22;;;32.43;59.93
23223;BME280;11780;13.904;100.620;2023-04-27T08:41:48;100665.66;;;32.46;60.18
23223;BME280;11780;13.904;100.620;2023-04-27T08:44:19;100675.56;;;32.47;60.16
23223;BME280;11780;13.904;100.620;2023-04-27T08:46:49;100669.59;;;32.45;60.51
23223;BME280;11780;13.904;100.620;2023-04-27T08:49:20;100666.13;;;32.48;60.62
23223;BME280;11780;13.904;100.620;2023-04-27T08:51:51;100660.03;;;32.55;60.74
23223;BME280;11780;13.904;100.620;2023-04-27T08:54:22;100678.16;;;32.53;60.50
23223;BME280;11780;13.904;100.620;2023-04-27T08:56:52;100687.13;;;32.49;61.04
23223;BME280;11780;13.904;100.620;2023-04-27T08:59:22;100678.34;;;32.47;61.05
23223;BME280;11780;13.904;100.620;2023-04-27T09:01:52;100663.56;;;32.43;61.07
23223;BME280;11780;13.904;100.620;2023-04-27T09:04:22;100668.16;;;32.39;61.29
23223;BME280;11780;13.904;100.620;2023-04-27T09:06:53;100679.09;;;32.36;61.55
23223;BME280;11780;13.904;100.620;2023-04-27T09:09:24;100686.91;;;32.33;61.10
23223;BME280;11780;13.904;100.620;2023-04-27T09:11:55;100668.69;;;32.32;61.06
23223;BME280;11780;13.904;100.620;2023-04-27T09:14:25;100657.97;;;32.31;60.35
23223;BME280;11780;13.904;100.620;2023-04-27T09:16:57;100642.81;;;32.28;60.14
23223;BME280;11780;13.904;100.620;2023-04-27T09:19:29;100636.50;;;32.28;60.28
23223;BME280;11780;13.904;100.620;2023-04-27T09:24:34;100639.06;;;32.24;60.49
23223;BME280;11780;13.904;100.620;2023-04-27T09:27:06;100628.34;;;32.23;60.09
23223;BME280;11780;13.904;100.620;2023-04-27T09:29:37;100639.41;;;32.23;60.19
23223;BME280;11780;13.904;100.620;2023-04-27T09:32:17;100644.47;;;32.20;60.10
23223;BME280;11780;13.904;100.620;2023-04-27T09:34:49;100635.03;;;32.22;58.80
23223;BME280;11780;13.904;100.620;2023-04-27T09:37:21;100633.88;;;32.23;59.18
23223;BME280;11780;13.904;100.620;2023-04-27T09:39:52;100633.88;;;32.23;59.15
23223;BME280;11780;13.904;100.620;2023-04-27T09:42:23;100625.09;;;32.20;59.67
23223;BME280;11780;13.904;100.620;2023-04-27T09:44:53;100624.28;;;32.20;59.58
23223;BME280;11780;13.904;100.620;2023-04-27T09:47:25;100616.31;;;32.18;59.65
23223;BME280;11780;13.904;100.620;2023-04-27T09:49:58;100625.75;;;32.17;59.81
23223;BME280;11780;13.904;100.620;2023-04-27T09:52:31;100637.66;;;32.18;59.85
23223;BME280;11780;13.904;100.620;2023-04-27T09:55:02;100635.22;;;32.16;59.57
23223;BME280;11780;13.904;100.620;2023-04-27T09:57:50;100636.03;;;32.17;59.80
23223;BME280;11780;13.904;100.620;2023-04-27T10:00:40;100617.47;;;32.17;60.04
23223;BME280;11780;13.904;100.620;2023-04-27T10:03:22;100610.00;;;32.18;60.04
23223;BME280;11780;13.904;100.620;2023-04-27T10:08:37;100617.16;;;32.19;60.17
23223;BME280;11780;13.904;100.620;2023-04-27T10:11:15;100614.69;;;32.17;59.69
23223;BME280;11780;13.904;100.620;2023-04-27T10:13:52;100615.66;;;32.22;59.83
23223;BME280;11780;13.904;100.620;2023-04-27T10:16:23;100614.84;;;32.21;60.00
23223;BME280;11780;13.904;100.620;2023-04-27T10:18:55;100601.81;;;32.22;60.05
23223;BME280;11780;13.904;100.620;2023-04-27T10:21:26;100595.47;;;32.21;60.21
23223;BME280;11780;13.904;100.620;2023-04-27T10:24:06;100589.25;;;32.24;60.17
23223;BME280;11780;13.904;100.620;2023-04-27T10:26:45;100585.56;;;32.20;60.15
23223;BME280;11780;13.904;100.620;2023-04-27T10:29:16;100579.69;;;32.22;60.13
23223;BME280;11780;13.904;100.620;2023-04-27T10:31:48;100585.69;;;32.24;60.27
23223;BME280;11780;13.904;100.620;2023-04-27T10:34:18;100579.69;;;32.22;60.33
23223;BME280;11780;13.904;100.620;2023-04-27T10:37:07;100590.75;;;32.22;60.14
23223;BME280;11780;13.904;100.620;2023-04-27T10:39:40;100580.03;;;32.20;60.78
23223;BME280;11780;13.904;100.620;2023-04-27T10:42:26;100587.97;;;32.22;60.75
23223;BME280;11780;13.904;100.620;2023-04-27T10:44:59;100597.09;;;32.22;60.58
23223;BME280;11780;13.904;100.620;2023-04-27T10:47:38;100597.91;;;32.23;60.53
23223;BME280;11780;13.904;100.620;2023-04-27T10:50:12;100597.09;;;32.22;60.67
23223;BME280;11780;13.904;100.620;2023-04-27T10:52:43;100604.41;;;32.27;60.93
23223;BME280;11780;13.904;100.620;2023-04-27T10:55:17;100609.44;;;32.25;60.71
23223;BME280;11780;13.904;100.620;2023-04-27T10:57:54;100630.47;;;32.26;60.42
23223;BME280;11780;13.904;100.620;2023-04-27T11:00:40;100643.66;;;32.29;60.64
23223;BME280;11780;13.904;100.620;2023-04-27T11:03:18;100663.50;;;32.31;60.58
23223;BME280;11780;13.904;100.620;2023-04-27T11:05:59;100673.41;;;32.32;60.40
23223;BME280;11780;13.904;100.620;2023-04-27T11:08:30;100674.56;;;32.31;60.44
23223;BME280;11780;13.904;100.620;2023-04-27T11:11:02;100682.88;;;32.31;60.99
23223;BME280;11780;13.904;100.620;2023-04-27T11:13:35;100702.25;;;32.31;60.63
23223;BME280;11780;13.904;100.620;2023-04-27T11:16:05;100725.19;;;32.31;61.00
23223;BME280;11780;13.904;100.620;2023-04-27T11:18:37;100737.41;;;32.30;60.81
23223;BME280;11780;13.904;100.620;2023-04-27T11:21:15;100756.28;;;32.28;60.86
23223;BME280;11780;13.904;100.620;2023-04-27T11:23:45;100765.44;;;32.29;61.27
23223;BME280;11780;13.904;100.620;2023-04-27T11:26:17;100782.03;;;32.29;61.53
23223;BME280;11780;13.904;100.620;2023-04-27T11:29:01;100790.34;;;32.29;61.65
23223;BME280;11780;13.904;100.620;2023-04-27T11:31:47;100799.78;;;32.28;61.54
23223;BME280;11780;13.904;100.620;2023-04-27T11:34:22;100811.34;;;32.30;61.58
23223;BME280;11780;13.904;100.620;2023-04-27T11:37:01;100832.34;;;32.31;61.74
23223;BME280;11780;13.904;100.620;2023-04-27T12:50:31;100912.13;;;32.02;61.95
23223;BME280;11780;13.904;100.620;2023-04-27T12:53:01;100914.25;;;32.06;62.75
23223;BME280;11780;13.904;100.620;2023-04-27T12:55:32;100928.59;;;32.08;62.44
23223;BME280;11780;13.904;100.620;2023-04-27T12:58:02;100930.66;;;32.11;62.13
23223;BME280;11780;13.904;100.620;2023-04-27T13:00:33;100945.16;;;32.16;61.14
23223;BME280;11780;13.904;100.620;2023-04-27T13:05:55;100958.69;;;32.27;60.60
23223;BME280;11780;13.904;100.620;2023-04-27T13:08:25;100965.84;;;32.28;60.68
23223;BME280;11780;13.904;100.620;2023-04-27T13:10:56;100963.72;;;32.25;60.76
23223;BME280;11780;13.904;100.620;2023-04-27T13:13:27;100959.97;;;32.29;60.30
23223;BME280;11780;13.904;100.620;2023-04-27T13:15:57;100957.84;;;32.35;60.39
23223;BME280;11780;13.904;100.620;2023-04-27T13:18:27;100963.56;;;32.30;nan
23223;BME280;11780;13.904;100.620;2023-04-27T13:21:02;100969.13;;;32.30;nan
23223;BME280;11780;13.904;100.620;2023-04-27T13:23:34;100964.53;;;32.34;nan
23223;BME280;11780;13.904;100.620;2023-04-27T13:26:04;100968.75;;;32.40;nan
23223;BME280;11780;13.904;100.620;2023-04-27T13:28:35;100959.78;;;32.43;nan
23223;BME280;11780;13.904;100.620;2023-04-27T13:31:06;100949.53;;;32.44;nan
23223;BME280;11780;13.904;100.620;2023-04-27T13:33:42;100942.69;;;32.41;nan
23223;BME280;11780;13.904;100.620;2023-04-27T13:36:12;100952.63;;;32.42;nan
23223;BME280;11780;13.904;100.620;2023-04-27T13:38:43;100956.38;;;32.46;nan
23223;BME280;11780;13.904;100.620;2023-04-27T13:41:14;100957.19;;;32.47;nan
23223;BME280;11780;13.904;100.620;2023-04-27T13:43:44;100965.31;;;32.52;nan
23223;BME280;11780;13.904;100.620;2023-04-27T13:46:15;100975.06;;;32.49;nan
23223;BME280;11780;13.904;100.620;2023-04-27T13:48:45;100977.84;;;32.49;nan
23223;BME280;11780;13.904;100.620;2023-04-27T13:51:16;100986.84;;;32.46;nan
23223;BME280;11780;13.904;100.620;2023-04-27T13:53:56;100995.63;;;32.40;nan
23223;BME280;11780;13.904;100.620;2023-04-27T13:56:26;101003.78;;;32.36;nan
23223;BME280;11780;13.904;100.620;2023-04-27T13:58:57;101003.28;;;32.34;nan
23223;BME280;11780;13.904;100.620;2023-04-27T14:01:27;100999.38;;;32.35;nan
23223;BME280;11780;13.904;100.620;2023-04-27T14:03:58;101002.97;;;32.36;nan
23223;BME280;11780;13.904;100.620;2023-04-27T14:06:30;101009.66;;;32.34;nan
23223;BME280;11780;13.904;100.620;2023-04-27T14:09:01;101030.94;;;32.25;nan
23223;BME280;11780;13.904;100.620;2023-04-27T14:11:31;101038.44;;;32.25;nan